Time;durP1;ratioP1;P1;durP2;ratioP2;P2;SDS_P1;SDS_P2;PMS_P1;PMS_P2;Temp;Humidity;BMP_temperature;BMP_pressure;BME280_temperature;BME280_humidity;BME280_pressure;Samples;Min_cycle;Max_cycle;Signal;HPM_P1;HPM_P2
2022/03/07 00:02:08;;;;;;;11.68;8.07;;;2.30;53.40;;;;;;4939402;28;20063;-66
2022/03/07 00:04:34;;;;;;;12.07;7.97;;;2.20;53.40;;;;;;4938988;28;20542;-67
2022/03/07 00:07:00;;;;;;;10.57;7.50;;;2.20;53.40;;;;;;4937872;28;20039;-67
2022/03/07 00:09:26;;;;;;;11.25;7.72;;;2.20;53.50;;;;;;4939542;28;20047;-67
2022/03/07 00:11:52;;;;;;;13.60;8.13;;;2.10;53.50;;;;;;4938211;28;20398;-67
2022/03/07 00:14:17;;;;;;;12.65;7.70;;;2.10;53.50;;;;;;4939292;28;20091;-66
2022/03/07 00:16:44;;;;;;;12.55;8.00;;;2.10;53.60;;;;;;4937792;28;20208;-67
2022/03/07 00:19:09;;;;;;;12.82;8.10;;;2.00;53.60;;;;;;4939535;28;20078;-66
2022/03/07 00:21:36;;;;;;;14.40;8.88;;;2.00;53.70;;;;;;4938182;28;20130;-68
2022/03/07 00:24:02;;;;;;;12.25;8.27;;;2.00;53.70;;;;;;4939435;28;20412;-66
2022/03/07 00:26:28;;;;;;;11.77;8.45;;;1.90;53.80;;;;;;4938562;28;20036;-67
2022/03/07 00:28:54;;;;;;;13.73;8.40;;;1.90;53.90;;;;;;4939616;28;20039;-67
2022/03/07 00:31:21;;;;;;;11.80;8.57;;;1.90;53.90;;;;;;4939187;28;20058;-67
2022/03/07 00:33:47;;;;;;;12.55;8.43;;;1.90;54.00;;;;;;4936053;28;20079;-66
2022/03/07 00:36:13;;;;;;;11.88;8.82;;;1.80;54.10;;;;;;4935241;28;20055;-66
2022/03/07 00:38:38;;;;;;;13.75;8.23;;;1.80;54.20;;;;;;4934438;28;20023;-66
2022/03/07 00:41:04;;;;;;;14.75;9.20;;;1.70;54.20;;;;;;4938467;28;20038;-66
2022/03/07 00:43:30;;;;;;;10.43;7.88;;;1.80;54.30;;;;;;4935158;28;20415;-66
2022/03/07 00:45:56;;;;;;;12.80;8.48;;;1.70;54.40;;;;;;4935592;28;20427;-67
2022/03/07 00:48:21;;;;;;;13.00;8.70;;;1.70;54.50;;;;;;4935784;28;20059;-66
2022/03/07 00:50:50;;;;;;;13.05;9.00;;;1.70;54.50;;;;;;4933414;28;20102;-67
2022/03/07 00:53:23;;;;;;;13.63;8.80;;;1.70;54.60;;;;;;4936669;28;20027;-66
2022/03/07 00:55:49;;;;;;;11.27;8.35;;;1.70;54.70;;;;;;4936657;28;20038;-67
2022/03/07 00:58:15;;;;;;;14.02;8.30;;;1.60;54.60;;;;;;4937823;28;20035;-66
2022/03/07 01:00:42;;;;;;;11.93;8.73;;;1.60;54.70;;;;;;4934390;28;20120;-66
2022/03/07 01:03:09;;;;;;;11.57;8.43;;;1.60;54.70;;;;;;4936081;28;20043;-64
2022/03/07 01:05:35;;;;;;;14.70;8.82;;;1.70;54.80;;;;;;4925174;28;20629;-67
2022/03/07 01:08:01;;;;;;;18.25;9.05;;;1.60;54.80;;;;;;4945875;28;20035;-65
2022/03/07 01:10:27;;;;;;;13.65;9.05;;;1.60;54.80;;;;;;4933184;28;20451;-66
2022/03/07 01:12:54;;;;;;;13.63;9.00;;;1.60;54.90;;;;;;4931590;28;20028;-66
2022/03/07 01:15:20;;;;;;;12.80;9.13;;;1.60;54.90;;;;;;4923278;28;20031;-67
2022/03/07 01:17:45;;;;;;;13.77;9.48;;;1.60;55.00;;;;;;4935967;28;20055;-66
2022/03/07 01:20:11;;;;;;;14.70;9.63;;;1.60;55.10;;;;;;4937198;28;20040;-67
2022/03/07 01:22:38;;;;;;;13.00;8.82;;;1.60;55.20;;;;;;4921664;28;20425;-66
2022/03/07 01:25:05;;;;;;;15.00;9.07;;;1.60;55.20;;;;;;4929880;28;20091;-67
2022/03/07 01:27:32;;;;;;;12.75;8.95;;;1.60;55.20;;;;;;4926472;28;20039;-67
2022/03/07 01:29:59;;;;;;;11.93;8.82;;;1.60;55.30;;;;;;4941995;28;20510;-67
2022/03/07 01:32:25;;;;;;;12.20;8.93;;;1.50;55.30;;;;;;4932346;28;20140;-67
2022/03/07 01:34:51;;;;;;;10.93;8.55;;;1.50;55.30;;;;;;4936479;28;20036;-67
2022/03/07 01:37:16;;;;;;;14.10;9.52;;;1.50;55.50;;;;;;4936245;28;20039;-66
2022/03/07 01:39:42;;;;;;;13.80;9.35;;;1.50;55.50;;;;;;4936780;28;20566;-67
2022/03/07 01:42:08;;;;;;;13.23;8.95;;;1.50;55.60;;;;;;4935640;28;20043;-66
2022/03/07 01:44:34;;;;;;;13.00;9.02;;;1.50;55.70;;;;;;4934127;28;20035;-67
2022/03/07 01:47:00;;;;;;;13.63;8.85;;;1.50;55.60;;;;;;4937009;28;20043;-67
2022/03/07 01:49:26;;;;;;;13.82;9.45;;;1.40;55.70;;;;;;4936713;28;20035;-68
2022/03/07 01:51:52;;;;;;;14.20;9.05;;;1.40;56.10;;;;;;4936513;28;20028;-66
2022/03/07 01:54:20;;;;;;;14.77;9.38;;;1.40;56.10;;;;;;4924097;28;20424;-66
2022/03/07 01:56:48;;;;;;;15.65;9.20;;;1.40;56.20;;;;;;4937655;28;20036;-67
2022/03/07 01:59:15;;;;;;;12.13;8.38;;;1.40;56.20;;;;;;4940980;28;20668;-67
2022/03/07 02:01:41;;;;;;;11.57;8.75;;;1.40;56.30;;;;;;4939254;28;20031;-67
2022/03/07 02:04:08;;;;;;;13.00;8.68;;;1.40;56.20;;;;;;4940123;28;20523;-66
2022/03/07 02:06:34;;;;;;;12.38;8.98;;;1.40;56.30;;;;;;4937929;28;20135;-66
2022/03/07 02:09:00;;;;;;;13.93;9.00;;;1.40;56.30;;;;;;4940054;28;20109;-66
2022/03/07 02:11:26;;;;;;;14.45;9.10;;;1.40;56.40;;;;;;4938025;28;20043;-68
2022/03/07 02:13:52;;;;;;;15.27;9.70;;;1.40;56.40;;;;;;4938358;28;20522;-66
2022/03/07 02:16:19;;;;;;;13.27;9.05;;;1.40;56.40;;;;;;4938364;28;20507;-67
2022/03/07 02:18:45;;;;;;;11.90;8.93;;;1.40;56.50;;;;;;4937093;28;20090;-67
2022/03/07 02:21:16;;;;;;;14.70;9.60;;;1.40;56.50;;;;;;4938715;28;20040;-66
2022/03/07 02:23:45;;;;;;;13.65;9.50;;;1.40;56.80;;;;;;4938152;28;20024;-68
2022/03/07 02:26:14;;;;;;;12.73;9.10;;;1.40;57.00;;;;;;4940624;28;20048;-66
2022/03/07 02:28:41;;;;;;;13.20;9.30;;;1.30;56.70;;;;;;4937090;28;20087;-66
2022/03/07 02:31:07;;;;;;;15.65;9.38;;;1.30;56.90;;;;;;4936804;28;20379;-67
2022/03/07 02:33:34;;;;;;;13.43;8.70;;;1.30;56.90;;;;;;4937737;28;20039;-66
2022/03/07 02:36:00;;;;;;;16.05;8.80;;;1.30;57.00;;;;;;4940929;28;20135;-66
2022/03/07 02:38:26;;;;;;;12.15;9.15;;;1.30;57.10;;;;;;4937475;28;20047;-67
2022/03/07 02:40:51;;;;;;;14.13;9.00;;;1.30;57.10;;;;;;4943565;28;20035;-66
2022/03/07 02:43:18;;;;;;;13.38;9.25;;;1.30;57.20;;;;;;4939038;28;20074;-66
2022/03/07 02:45:44;;;;;;;12.27;8.85;;;1.30;57.20;;;;;;4936620;28;22288;-67
2022/03/07 02:48:10;;;;;;;15.02;9.60;;;1.30;57.30;;;;;;4940264;28;20035;-66
2022/03/07 02:50:36;;;;;;;14.75;9.20;;;1.40;57.40;;;;;;4936804;28;20056;-67
2022/03/07 02:53:02;;;;;;;13.40;9.10;;;1.40;57.40;;;;;;4940679;28;20503;-66
2022/03/07 02:55:29;;;;;;;13.45;8.93;;;1.30;57.40;;;;;;4937964;28;20031;-67
2022/03/07 02:57:54;;;;;;;12.07;8.65;;;1.40;57.50;;;;;;4939947;28;20062;-66
2022/03/07 03:00:20;;;;;;;13.40;9.30;;;1.40;57.50;;;;;;4936309;28;20039;-66
2022/03/07 03:02:45;;;;;;;12.57;8.75;;;1.40;57.50;;;;;;4936425;28;20066;-67
2022/03/07 03:05:11;;;;;;;12.20;8.10;;;1.40;57.50;;;;;;4940428;28;20047;-66
2022/03/07 03:07:37;;;;;;;13.63;8.57;;;1.40;57.40;;;;;;4940756;28;20111;-66
2022/03/07 03:10:04;;;;;;;12.88;8.52;;;1.40;58.00;;;;;;4939764;28;20050;-66
2022/03/07 03:12:30;;;;;;;15.70;8.43;;;1.40;57.50;;;;;;4936188;28;20039;-67
2022/03/07 03:14:56;;;;;;;12.13;8.13;;;1.30;57.40;;;;;;4938273;28;20043;-67
2022/03/07 03:17:21;;;;;;;11.63;8.25;;;1.30;57.40;;;;;;4935087;28;20036;-67
2022/03/07 03:19:48;;;;;;;12.48;8.02;;;1.30;57.40;;;;;;4936487;28;20031;-67
2022/03/07 03:22:13;;;;;;;11.75;8.45;;;1.30;57.50;;;;;;4937819;28;20161;-66
2022/03/07 03:24:39;;;;;;;11.55;8.43;;;1.30;57.40;;;;;;4938670;28;20526;-66
2022/03/07 03:27:05;;;;;;;12.52;8.13;;;1.30;57.50;;;;;;4938872;28;20039;-66
2022/03/07 03:29:31;;;;;;;10.82;7.85;;;1.30;57.50;;;;;;4938399;28;20444;-66
2022/03/07 03:31:57;;;;;;;13.05;8.20;;;1.20;57.40;;;;;;4935994;28;20038;-66
2022/03/07 03:34:23;;;;;;;13.43;7.82;;;1.20;57.50;;;;;;4937585;28;20047;-67
2022/03/07 03:36:49;;;;;;;12.43;8.45;;;1.20;57.50;;;;;;4938873;28;20455;-67
2022/03/07 03:39:15;;;;;;;11.35;8.07;;;1.10;57.50;;;;;;4938607;28;20031;-67
2022/03/07 03:41:41;;;;;;;12.15;7.88;;;1.10;57.50;;;;;;4938833;28;20036;-66
2022/03/07 03:44:06;;;;;;;11.60;8.13;;;1.10;57.50;;;;;;4939172;28;20126;-66
2022/03/07 03:46:33;;;;;;;12.80;7.72;;;1.10;57.50;;;;;;4937286;28;20043;-67
2022/03/07 03:48:59;;;;;;;11.63;7.90;;;1.10;58.20;;;;;;4940164;28;20068;-66
2022/03/07 03:51:24;;;;;;;13.32;8.43;;;1.10;57.60;;;;;;4937179;28;20436;-66
2022/03/07 03:53:50;;;;;;;13.07;8.25;;;1.00;57.60;;;;;;4936159;28;20031;-66
2022/03/07 03:56:15;;;;;;;12.18;8.70;;;1.00;57.60;;;;;;4938456;28;20086;-66
2022/03/07 03:58:41;;;;;;;12.57;8.52;;;0.90;57.60;;;;;;4936790;28;20036;-67
2022/03/07 04:01:07;;;;;;;12.20;8.50;;;0.90;57.60;;;;;;4937550;28;20032;-67
2022/03/07 04:03:32;;;;;;;14.80;8.73;;;0.90;57.60;;;;;;4937452;28;20031;-67
2022/03/07 04:05:58;;;;;;;11.82;7.95;;;0.80;57.70;;;;;;4940125;28;20098;-66
2022/03/07 04:08:24;;;;;;;11.25;7.60;;;0.80;57.70;;;;;;4938027;28;20043;-67
2022/03/07 04:10:49;;;;;;;10.95;7.97;;;0.80;57.70;;;;;;4937408;28;20074;-66
2022/03/07 04:13:15;;;;;;;12.10;8.30;;;0.80;57.70;;;;;;4940981;28;20047;-66
2022/03/07 04:15:40;;;;;;;12.20;8.70;;;0.80;57.80;;;;;;4937577;28;20577;-66
2022/03/07 04:18:06;;;;;;;13.32;8.80;;;0.70;57.80;;;;;;4936622;28;20035;-66
2022/03/07 04:20:33;;;;;;;11.38;7.85;;;0.70;57.90;;;;;;4936418;28;20101;-66
2022/03/07 04:23:02;;;;;;;13.05;8.82;;;0.70;57.90;;;;;;4934728;28;20171;-66
2022/03/07 04:25:28;;;;;;;13.57;8.32;;;0.60;57.90;;;;;;4936652;28;20040;-66
2022/03/07 04:27:54;;;;;;;13.77;8.45;;;0.60;57.90;;;;;;4937132;28;20039;-66
2022/03/07 04:30:20;;;;;;;12.80;8.85;;;0.60;58.00;;;;;;4935869;28;20043;-66
2022/03/07 04:32:46;;;;;;;15.32;9.38;;;0.50;57.90;;;;;;4933985;28;20506;-66
2022/03/07 04:35:12;;;;;;;12.93;8.73;;;0.50;58.00;;;;;;4936152;28;20166;-67
2022/03/07 04:37:40;;;;;;;12.27;8.50;;;0.50;58.00;;;;;;4933525;28;20119;-66
2022/03/07 04:40:10;;;;;;;12.63;8.77;;;0.50;58.20;;;;;;4936430;28;20040;-67
2022/03/07 04:42:35;;;;;;;13.40;8.80;;;0.40;58.20;;;;;;4934361;28;20400;-66
2022/03/07 04:45:01;;;;;;;12.07;7.97;;;0.40;58.20;;;;;;4933833;28;20027;-66
2022/03/07 04:47:26;;;;;;;13.85;8.73;;;0.30;58.30;;;;;;4935198;28;20063;-66
2022/03/07 04:49:52;;;;;;;13.38;8.93;;;0.30;58.30;;;;;;4937098;28;20031;-65
2022/03/07 04:52:18;;;;;;;14.63;9.02;;;0.30;58.40;;;;;;4932429;28;20114;-66
2022/03/07 04:54:43;;;;;;;14.45;9.10;;;0.30;58.40;;;;;;4933798;28;20043;-66
2022/03/07 04:57:09;;;;;;;12.52;8.95;;;0.30;58.40;;;;;;4935178;28;20522;-66
2022/03/07 04:59:34;;;;;;;15.82;9.15;;;0.30;58.40;;;;;;4930703;28;20032;-66
2022/03/07 05:02:00;;;;;;;13.35;9.20;;;0.20;58.50;;;;;;4936023;28;20459;-66
2022/03/07 05:04:26;;;;;;;13.73;8.50;;;0.20;58.50;;;;;;4938730;28;20039;-66
2022/03/07 05:06:51;;;;;;;15.10;9.05;;;0.20;58.50;;;;;;4938725;28;20031;-67
2022/03/07 05:09:17;;;;;;;13.52;8.88;;;0.20;58.50;;;;;;4939241;28;20072;-67
2022/03/07 05:11:42;;;;;;;15.38;9.30;;;0.20;58.50;;;;;;4939930;28;20046;-67
2022/03/07 05:14:08;;;;;;;16.05;9.93;;;0.10;58.50;;;;;;4937320;28;20042;-67
2022/03/07 05:16:33;;;;;;;17.00;9.70;;;0.20;58.60;;;;;;4935972;28;20102;-66
2022/03/07 05:18:59;;;;;;;18.05;9.75;;;0.10;58.60;;;;;;4935873;28;20625;-66
2022/03/07 05:21:25;;;;;;;16.50;9.88;;;0.20;58.60;;;;;;4934038;28;20781;-67
2022/03/07 05:23:50;;;;;;;20.70;11.73;;;0.10;58.50;;;;;;4936562;28;20130;-66
2022/03/07 05:26:16;;;;;;;21.30;12.45;;;0.10;58.50;;;;;;4941297;28;20034;-66
2022/03/07 05:28:42;;;;;;;21.65;11.13;;;0.10;58.60;;;;;;4940671;28;20070;-66
2022/03/07 05:31:12;;;;;;;21.58;10.60;;;0.10;58.60;;;;;;4943151;28;20043;-66
2022/03/07 05:33:38;;;;;;;18.48;11.25;;;0.10;58.60;;;;;;4947728;28;20495;-66
2022/03/07 05:36:05;;;;;;;17.80;10.63;;;0.10;58.70;;;;;;4933944;28;20050;-66
2022/03/07 05:38:31;;;;;;;18.77;10.52;;;0.00;58.70;;;;;;4942515;28;20138;-65
2022/03/07 05:40:57;;;;;;;17.50;11.05;;;0.00;58.70;;;;;;4944938;28;20643;-65
2022/03/07 05:43:22;;;;;;;19.27;11.15;;;0.00;58.80;;;;;;4942623;28;20058;-66
2022/03/07 05:45:48;;;;;;;18.77;11.20;;;-0.10;58.70;;;;;;4944086;28;20061;-67
2022/03/07 05:48:13;;;;;;;20.10;11.55;;;-0.10;58.80;;;;;;4944328;28;20043;-65
2022/03/07 05:50:41;;;;;;;23.73;11.38;;;-0.10;58.90;;;;;;4943025;28;20035;-66
2022/03/07 05:53:07;;;;;;;19.70;11.25;;;-0.10;59.00;;;;;;4943927;28;20120;-67
2022/03/07 05:55:32;;;;;;;17.77;11.27;;;-0.20;58.90;;;;;;4944713;28;20044;-66
2022/03/07 05:58:00;;;;;;;18.98;11.95;;;-0.20;59.00;;;;;;4945745;28;20202;-64
2022/03/07 06:00:26;;;;;;;24.63;11.63;;;-0.20;59.00;;;;;;4946319;28;20119;-66
2022/03/07 06:02:52;;;;;;;20.20;11.70;;;-0.30;59.10;;;;;;4940075;29;20039;-66
2022/03/07 06:05:18;;;;;;;20.98;11.68;;;-0.30;59.20;;;;;;4943795;28;20046;-66
2022/03/07 06:07:43;;;;;;;19.77;10.80;;;-0.30;59.20;;;;;;4943492;28;20103;-67
2022/03/07 06:10:09;;;;;;;23.65;12.43;;;-0.30;59.30;;;;;;4941657;28;20024;-66
2022/03/07 06:12:35;;;;;;;18.73;11.60;;;-0.30;59.40;;;;;;4941996;28;20039;-67
2022/03/07 06:15:03;;;;;;;26.23;11.73;;;-0.30;59.40;;;;;;4944327;28;20043;-67
2022/03/07 06:17:33;;;;;;;21.52;11.52;;;-0.30;59.50;;;;;;4943896;28;20031;-66
2022/03/07 06:19:59;;;;;;;25.52;13.70;;;-0.40;59.50;;;;;;4943438;28;20122;-67
2022/03/07 06:22:25;;;;;;;22.67;13.02;;;-0.40;59.50;;;;;;4944047;28;20126;-66
2022/03/07 06:24:50;;;;;;;20.58;12.02;;;-0.40;59.60;;;;;;4944593;28;20050;-67
2022/03/07 06:27:16;;;;;;;18.27;11.57;;;-0.40;59.60;;;;;;4943518;28;20032;-66
2022/03/07 06:29:42;;;;;;;17.70;10.77;;;-0.40;59.80;;;;;;4942216;28;20042;-67
2022/03/07 06:32:08;;;;;;;19.60;11.27;;;-0.40;59.80;;;;;;4943187;28;20078;-65
2022/03/07 06:34:33;;;;;;;20.67;11.43;;;-0.40;59.90;;;;;;4941719;28;20056;-66
2022/03/07 06:37:00;;;;;;;18.23;11.43;;;-0.40;60.00;;;;;;4940732;28;20143;-66
2022/03/07 06:39:27;;;;;;;19.35;11.20;;;-0.40;60.10;;;;;;4940008;28;20039;-66
2022/03/07 06:41:54;;;;;;;18.63;11.15;;;-0.40;60.10;;;;;;4941869;28;20089;-65
2022/03/07 06:44:20;;;;;;;16.90;10.95;;;-0.40;60.20;;;;;;4940243;28;20039;-65
2022/03/07 06:46:46;;;;;;;19.55;11.55;;;-0.40;60.20;;;;;;4939087;28;20086;-67
2022/03/07 06:49:11;;;;;;;18.98;10.68;;;-0.40;60.30;;;;;;4939988;28;20047;-66
2022/03/07 06:51:37;;;;;;;19.15;11.63;;;-0.40;60.50;;;;;;4941158;29;20040;-66
2022/03/07 06:54:04;;;;;;;18.98;11.13;;;-0.40;60.60;;;;;;4939432;28;20554;-66
2022/03/07 06:56:29;;;;;;;19.33;11.48;;;-0.40;61.50;;;;;;4939424;28;20039;-66
2022/03/07 06:58:55;;;;;;;17.65;11.38;;;-0.30;60.70;;;;;;4938283;28;20521;-67
2022/03/07 07:01:21;;;;;;;18.13;11.05;;;-0.30;60.90;;;;;;4937499;28;20380;-66
2022/03/07 07:03:47;;;;;;;17.48;11.07;;;-0.40;60.80;;;;;;4937071;28;20466;-66
2022/03/07 07:06:13;;;;;;;20.38;11.82;;;-0.30;60.90;;;;;;4939825;28;20034;-66
2022/03/07 07:08:38;;;;;;;18.70;11.10;;;-0.30;61.00;;;;;;4938522;28;20046;-65
2022/03/07 07:11:04;;;;;;;17.55;11.15;;;-0.30;60.90;;;;;;4941067;28;20055;-67
2022/03/07 07:13:30;;;;;;;18.88;10.93;;;-0.20;61.10;;;;;;4940896;28;20514;-67
2022/03/07 07:15:56;;;;;;;17.38;10.90;;;-0.20;61.10;;;;;;4940984;28;20043;-66
2022/03/07 07:18:23;;;;;;;16.33;10.43;;;-0.20;61.10;;;;;;4944198;28;20039;-66
2022/03/07 07:20:50;;;;;;;18.23;10.75;;;-0.10;61.80;;;;;;4938675;28;20663;-67
2022/03/07 07:23:20;;;;;;;17.40;10.45;;;-0.10;61.10;;;;;;4940322;28;20043;-66
2022/03/07 07:25:46;;;;;;;20.52;11.25;;;-0.10;61.00;;;;;;4940075;28;20039;-66
2022/03/07 07:28:12;;;;;;;18.00;10.48;;;0.00;61.10;;;;;;4940548;28;20511;-66
2022/03/07 07:30:38;;;;;;;21.45;10.48;;;0.00;61.00;;;;;;4940462;28;20085;-65
2022/03/07 07:33:04;;;;;;;15.95;10.20;;;0.00;60.90;;;;;;4940371;28;20028;-66
2022/03/07 07:35:30;;;;;;;16.85;10.15;;;0.10;61.10;;;;;;4942582;28;20090;-66
2022/03/07 07:37:55;;;;;;;15.50;10.27;;;0.10;61.10;;;;;;4939660;28;20748;-66
2022/03/07 07:40:22;;;;;;;16.45;10.38;;;0.20;60.90;;;;;;4941866;28;20046;-67
2022/03/07 07:42:47;;;;;;;15.32;10.32;;;0.20;61.00;;;;;;4938106;28;20047;-66
2022/03/07 07:45:13;;;;;;;15.80;10.50;;;0.20;60.70;;;;;;4941074;28;20082;-66
2022/03/07 07:47:39;;;;;;;15.23;9.77;;;0.30;60.60;;;;;;4940178;28;20395;-66
2022/03/07 07:50:06;;;;;;;15.20;9.82;;;0.30;60.90;;;;;;4938956;28;20109;-68
2022/03/07 07:52:31;;;;;;;14.75;9.63;;;0.30;60.60;;;;;;4938618;28;20027;-66
2022/03/07 07:54:57;;;;;;;13.57;9.80;;;0.40;60.70;;;;;;4939072;28;20110;-67
2022/03/07 07:57:23;;;;;;;15.75;9.63;;;0.40;60.70;;;;;;4944786;28;20078;-67
2022/03/07 07:59:48;;;;;;;16.40;10.15;;;0.50;60.70;;;;;;4937916;28;20558;-66
2022/03/07 08:02:14;;;;;;;15.23;10.20;;;0.50;60.70;;;;;;4938520;28;20094;-67
2022/03/07 08:04:39;;;;;;;14.48;9.85;;;0.60;60.70;;;;;;4937885;28;20039;-65
2022/03/07 08:07:05;;;;;;;13.77;9.40;;;0.70;60.50;;;;;;4938342;28;20035;-66
2022/03/07 08:09:31;;;;;;;16.50;9.07;;;0.70;60.20;;;;;;4938802;28;20035;-65
2022/03/07 08:11:57;;;;;;;14.07;9.23;;;0.80;60.10;;;;;;4935117;28;20127;-66
2022/03/07 08:14:23;;;;;;;13.80;9.48;;;0.80;60.10;;;;;;4942132;28;20230;-66
2022/03/07 08:16:49;;;;;;;16.90;10.40;;;0.90;59.90;;;;;;4937116;28;20039;-65
2022/03/07 08:19:15;;;;;;;13.63;8.70;;;0.90;59.90;;;;;;4936328;28;20038;-66
2022/03/07 08:21:41;;;;;;;14.43;9.90;;;1.00;59.90;;;;;;4938312;28;20037;-66
2022/03/07 08:24:07;;;;;;;15.68;9.95;;;1.00;59.90;;;;;;4938703;28;20027;-65
2022/03/07 08:26:33;;;;;;;13.75;9.55;;;1.10;59.90;;;;;;4939544;28;20546;-65
2022/03/07 08:28:58;;;;;;;13.20;9.05;;;1.10;59.70;;;;;;4939271;28;20043;-65
2022/03/07 08:31:24;;;;;;;15.55;9.70;;;1.10;59.50;;;;;;4939454;28;20102;-64
2022/03/07 08:33:50;;;;;;;16.52;9.65;;;1.20;59.50;;;;;;4940380;28;20491;-65
2022/03/07 08:36:16;;;;;;;13.70;9.57;;;1.20;59.40;;;;;;4938127;28;20102;-66
2022/03/07 08:38:41;;;;;;;16.15;10.40;;;1.30;59.30;;;;;;4939679;28;20045;-66
2022/03/07 08:41:07;;;;;;;39.33;11.18;;;1.40;59.20;;;;;;4937626;28;20392;-65
2022/03/07 08:43:33;;;;;;;13.82;10.10;;;1.40;59.00;;;;;;4939418;28;20400;-66
2022/03/07 08:45:59;;;;;;;17.25;10.30;;;1.50;59.10;;;;;;4937587;28;20040;-66
2022/03/07 08:48:25;;;;;;;15.95;10.00;;;1.50;59.00;;;;;;4939175;28;20071;-66
2022/03/07 08:50:53;;;;;;;14.82;9.82;;;1.60;58.90;;;;;;4941171;28;20079;-65
2022/03/07 08:53:19;;;;;;;14.23;9.95;;;1.60;58.70;;;;;;4941852;28;20503;-65
2022/03/07 08:55:45;;;;;;;14.93;10.77;;;1.70;58.70;;;;;;4941681;28;20050;-66
2022/03/07 08:58:11;;;;;;;15.93;10.27;;;1.80;58.60;;;;;;4940729;28;20063;-65
2022/03/07 09:00:37;;;;;;;17.17;10.60;;;1.80;58.60;;;;;;4938290;28;20039;-66
2022/03/07 09:03:04;;;;;;;16.08;10.27;;;1.90;58.50;;;;;;4935078;28;20097;-66
2022/03/07 09:05:30;;;;;;;17.67;10.25;;;2.00;59.10;;;;;;4941300;28;20200;-66
2022/03/07 09:07:56;;;;;;;16.25;10.90;;;2.00;58.40;;;;;;4940336;28;20023;-66
2022/03/07 09:10:22;;;;;;;15.93;10.32;;;2.10;58.30;;;;;;4940631;28;20082;-66
2022/03/07 09:12:48;;;;;;;16.58;10.05;;;2.10;58.10;;;;;;4939689;28;20046;-66
2022/03/07 09:15:14;;;;;;;14.70;10.52;;;2.20;58.00;;;;;;4941088;28;20144;-66
2022/03/07 09:17:41;;;;;;;15.52;10.52;;;2.30;58.00;;;;;;4940252;28;20118;-66
2022/03/07 09:20:08;;;;;;;17.00;10.70;;;2.30;57.90;;;;;;4941458;28;20042;-65
2022/03/07 09:22:34;;;;;;;16.50;9.88;;;2.40;57.80;;;;;;4939232;28;20415;-66
2022/03/07 09:25:00;;;;;;;15.52;10.80;;;2.50;57.70;;;;;;4941115;28;20046;-64
2022/03/07 09:27:26;;;;;;;14.50;10.13;;;2.50;57.50;;;;;;4939521;28;20032;-66
2022/03/07 09:29:52;;;;;;;15.27;10.35;;;2.60;57.40;;;;;;4927616;28;20039;-65
2022/03/07 09:32:18;;;;;;;15.82;10.45;;;2.60;57.20;;;;;;4935234;28;20039;-65
2022/03/07 09:34:43;;;;;;;18.88;10.77;;;2.60;57.20;;;;;;4938968;28;20170;-65
2022/03/07 09:37:10;;;;;;;18.27;10.80;;;2.70;57.20;;;;;;4939823;28;20102;-66
2022/03/07 09:39:36;;;;;;;14.38;10.18;;;2.80;57.10;;;;;;4940348;28;20043;-65
2022/03/07 09:42:02;;;;;;;13.77;10.30;;;2.80;57.00;;;;;;4937016;28;20040;-66
2022/03/07 09:44:28;;;;;;;15.73;10.75;;;2.90;56.90;;;;;;4937997;28;20541;-65
2022/03/07 09:46:59;;;;;;;16.80;11.18;;;2.90;56.70;;;;;;4935326;28;20385;-65
2022/03/07 09:49:25;;;;;;;15.18;11.23;;;3.00;56.50;;;;;;4920391;28;20059;-65
2022/03/07 09:51:54;;;;;;;15.75;11.10;;;3.10;56.50;;;;;;4931872;28;20038;-66
2022/03/07 09:54:21;;;;;;;15.40;10.38;;;3.10;56.30;;;;;;4939813;28;20414;-65
2022/03/07 09:56:47;;;;;;;17.48;11.45;;;3.20;56.20;;;;;;4936581;28;20118;-65
2022/03/07 09:59:12;;;;;;;14.68;10.40;;;3.20;56.00;;;;;;4940588;28;20503;-66
2022/03/07 10:01:38;;;;;;;16.20;11.48;;;3.30;56.00;;;;;;4936095;28;20123;-65
2022/03/07 10:04:11;;;;;;;17.45;11.32;;;3.40;55.90;;;;;;4940091;28;20035;-66
2022/03/07 10:06:37;;;;;;;16.40;10.88;;;3.50;55.50;;;;;;4937549;28;20027;-65
2022/03/07 10:09:04;;;;;;;16.25;11.38;;;3.50;55.40;;;;;;4939958;28;20034;-66
2022/03/07 10:11:31;;;;;;;14.52;10.18;;;3.60;55.50;;;;;;4942318;28;20043;-65
2022/03/07 10:14:04;;;;;;;16.88;11.27;;;3.60;55.40;;;;;;4941244;28;20529;-66
2022/03/07 10:16:41;;;;;;;20.02;11.75;;;3.60;55.80;;;;;;4944020;28;20035;-64
2022/03/07 10:19:11;;;;;;;18.35;12.10;;;3.70;54.90;;;;;;4944388;28;20043;-66
2022/03/07 10:21:52;;;;;;;17.40;11.63;;;3.70;54.80;;;;;;4944738;28;20083;-66
2022/03/07 10:24:31;;;;;;;16.15;10.80;;;3.80;54.50;;;;;;4948640;28;20043;-66
2022/03/07 10:26:57;;;;;;;17.58;11.18;;;3.90;54.80;;;;;;4943668;28;20041;-66
2022/03/07 10:29:23;;;;;;;16.88;11.77;;;3.90;54.90;;;;;;4941405;28;20032;-66
2022/03/07 10:31:49;;;;;;;18.13;11.65;;;3.90;54.50;;;;;;4942949;28;21201;-66
2022/03/07 10:34:14;;;;;;;16.80;11.40;;;4.00;54.50;;;;;;4943133;28;20610;-65
2022/03/07 10:36:42;;;;;;;16.45;11.27;;;4.10;54.40;;;;;;4940578;28;20036;-66
2022/03/07 10:39:15;;;;;;;18.20;11.70;;;4.10;54.30;;;;;;4942851;28;20221;-66
2022/03/07 10:41:46;;;;;;;17.05;11.98;;;4.20;54.20;;;;;;4940985;28;20036;-66
2022/03/07 10:44:24;;;;;;;16.17;10.93;;;4.20;53.90;;;;;;4942479;28;20036;-66
2022/03/07 10:46:50;;;;;;;18.45;11.90;;;4.30;53.90;;;;;;4940332;28;20081;-66
2022/03/07 10:49:19;;;;;;;15.77;11.70;;;4.40;54.30;;;;;;4942987;28;20507;-66
2022/03/07 10:51:52;;;;;;;16.10;12.05;;;4.40;54.20;;;;;;4942319;28;20043;-66
2022/03/07 10:54:20;;;;;;;17.27;11.98;;;4.60;54.00;;;;;;4946738;28;20121;-66
2022/03/07 10:56:56;;;;;;;19.17;12.27;;;4.70;53.70;;;;;;4940665;28;20043;-66
2022/03/07 10:59:28;;;;;;;16.15;11.93;;;4.80;53.60;;;;;;4940476;28;20569;-65
2022/03/07 11:01:59;;;;;;;17.95;12.25;;;4.90;53.50;;;;;;4943643;28;20032;-66
2022/03/07 11:04:25;;;;;;;18.05;12.38;;;5.00;53.10;;;;;;4942947;28;20039;-65
2022/03/07 11:06:52;;;;;;;18.02;12.52;;;5.00;53.20;;;;;;4942426;28;20570;-65
2022/03/07 11:09:18;;;;;;;18.58;13.35;;;5.10;53.10;;;;;;4945885;28;20040;-65
2022/03/07 11:11:44;;;;;;;19.75;12.68;;;5.10;52.70;;;;;;4940026;28;20300;-66
2022/03/07 11:14:11;;;;;;;17.85;12.52;;;5.20;52.60;;;;;;4941300;28;20032;-66
2022/03/07 11:16:38;;;;;;;18.38;12.80;;;5.20;52.50;;;;;;4940036;28;20058;-66
2022/03/07 11:19:06;;;;;;;19.35;12.85;;;5.30;52.20;;;;;;4947106;28;20115;-65
2022/03/07 11:21:35;;;;;;;19.58;12.20;;;5.30;51.90;;;;;;4942079;28;20086;-66
2022/03/07 11:24:00;;;;;;;18.05;12.57;;;5.30;52.10;;;;;;4939152;28;20032;-67
2022/03/07 11:26:27;;;;;;;18.90;12.65;;;5.30;51.80;;;;;;4942532;28;20410;-66
2022/03/07 11:28:52;;;;;;;16.70;12.43;;;5.30;51.90;;;;;;4937893;28;20565;-66
2022/03/07 11:31:23;;;;;;;18.73;12.23;;;5.30;51.90;;;;;;4928952;28;20054;-66
2022/03/07 11:33:53;;;;;;;18.25;12.20;;;5.30;51.60;;;;;;4940388;28;20067;-66
2022/03/07 11:36:20;;;;;;;16.80;12.65;;;5.40;51.60;;;;;;4940881;28;20046;-66
2022/03/07 11:39:01;;;;;;;17.08;12.05;;;5.40;51.70;;;;;;4938557;28;20051;-65
2022/03/07 11:41:29;;;;;;;18.17;11.98;;;5.40;51.20;;;;;;4940537;28;20442;-67
2022/03/07 11:43:56;;;;;;;16.95;11.90;;;5.40;51.50;;;;;;4942525;28;20039;-66
2022/03/07 11:46:37;;;;;;;18.83;13.02;;;5.40;51.40;;;;;;4942584;28;20562;-66
2022/03/07 11:49:04;;;;;;;18.52;12.77;;;5.40;50.70;;;;;;4940515;28;20066;-65
2022/03/07 11:51:32;;;;;;;16.67;12.43;;;5.40;51.10;;;;;;4941865;28;20532;-66
2022/03/07 11:53:59;;;;;;;16.48;12.40;;;5.40;51.20;;;;;;4943650;28;20507;-66
2022/03/07 11:56:25;;;;;;;19.45;12.35;;;5.40;51.30;;;;;;4939305;28;20153;-66
2022/03/07 11:58:56;;;;;;;18.65;12.65;;;5.40;51.20;;;;;;4941899;28;20385;-65
2022/03/07 12:01:23;;;;;;;17.77;12.60;;;5.40;51.30;;;;;;4942842;28;20032;-66
2022/03/07 12:03:49;;;;;;;19.42;13.15;;;5.40;51.40;;;;;;4940767;28;20130;-66
2022/03/07 12:06:18;;;;;;;19.52;13.50;;;5.40;51.20;;;;;;4941225;28;20035;-66
2022/03/07 12:08:48;;;;;;;17.60;13.25;;;5.40;50.70;;;;;;4942269;28;20039;-66
2022/03/07 12:11:31;;;;;;;18.90;12.55;;;5.40;50.70;;;;;;4943848;28;20050;-66
2022/03/07 12:14:03;;;;;;;19.13;13.52;;;5.40;50.60;;;;;;4943624;28;20098;-66
2022/03/07 12:16:33;;;;;;;19.42;13.50;;;5.40;50.50;;;;;;4941197;28;20043;-66
2022/03/07 12:19:20;;;;;;;17.52;13.07;;;5.40;50.70;;;;;;4940881;28;20063;-66
2022/03/07 12:21:48;;;;;;;21.13;13.10;;;5.40;50.50;;;;;;4943292;28;20067;-66
2022/03/07 12:24:19;;;;;;;18.35;13.27;;;5.30;50.70;;;;;;4941663;28;20443;-65
2022/03/07 12:26:53;;;;;;;20.50;13.30;;;5.40;50.60;;;;;;4924393;28;20066;-66
2022/03/07 12:29:22;;;;;;;18.65;13.32;;;5.40;50.60;;;;;;4942149;28;20076;-66
2022/03/07 12:31:59;;;;;;;17.98;13.02;;;5.40;50.70;;;;;;4943285;28;20058;-66
2022/03/07 12:34:26;;;;;;;19.13;12.88;;;5.40;50.50;;;;;;4940295;28;20111;-66
2022/03/07 12:37:12;;;;;;;19.98;14.02;;;5.40;50.50;;;;;;4942684;28;20040;-66
2022/03/07 12:39:49;;;;;;;20.02;13.18;;;5.50;50.40;;;;;;4941881;28;20110;-64